createdAt,value
2023-05-22T00:00:19.071Z,84.51
2023-05-22T00:03:08.548Z,85.39
2023-05-22T00:05:39.067Z,85.84
2023-05-22T00:08:11.914Z,86.32
2023-05-22T00:10:40.289Z,86.58
2023-05-22T00:13:08.593Z,87.43
2023-05-22T00:15:36.549Z,87.55
2023-05-22T00:18:06.504Z,87.40
2023-05-22T00:20:39.616Z,87.66
2023-05-22T00:23:12.163Z,88.46
2023-05-22T00:25:41.428Z,89.43
2023-05-22T00:28:09.682Z,89.08
2023-05-22T00:30:38.057Z,88.59
2023-05-22T00:33:06.501Z,88.61
2023-05-22T00:35:34.465Z,89.03
2023-05-22T00:38:04.319Z,88.93
2023-05-22T00:40:32.359Z,89.34
2023-05-22T00:43:00.536Z,89.38
2023-05-22T00:45:28.471Z,89.13
2023-05-22T00:47:56.706Z,88.78
2023-05-22T00:50:24.985Z,88.87
2023-05-22T00:52:53.035Z,88.93
2023-05-22T00:55:20.918Z,88.82
2023-05-22T00:57:49.930Z,89.11
2023-05-22T01:00:18.670Z,89.25
2023-05-22T01:02:46.735Z,88.98
2023-05-22T01:05:18.302Z,88.91
2023-05-22T01:07:46.590Z,89.07
2023-05-22T01:10:14.647Z,89.05
2023-05-22T01:13:07.300Z,89.16
2023-05-22T01:15:52.948Z,89.25
2023-05-22T01:18:43.998Z,88.92
2023-05-22T01:21:24.230Z,89.65
2023-05-22T01:24:11.867Z,90.04
2023-05-22T01:27:02.077Z,89.41
2023-05-22T01:29:44.533Z,89.13
2023-05-22T01:32:17.532Z,89.37
2023-05-22T01:34:47.967Z,89.33
2023-05-22T01:37:19.779Z,88.88
2023-05-22T01:39:48.304Z,88.97
2023-05-22T01:42:16.337Z,88.79
2023-05-22T01:44:44.569Z,88.93
2023-05-22T01:47:15.879Z,89.48
2023-05-22T01:49:50.409Z,89.38
2023-05-22T01:52:56.925Z,89.88
2023-05-22T01:55:40.589Z,90.34
2023-05-22T01:58:14.874Z,90.76
2023-05-22T02:00:47.191Z,90.86
2023-05-22T02:03:19.839Z,91.03
2023-05-22T02:05:54.456Z,91.35
2023-05-22T02:08:22.834Z,91.99
2023-05-22T02:10:55.076Z,91.94
2023-05-22T02:13:24.165Z,91.90
2023-05-22T02:15:53.043Z,91.93
2023-05-22T02:18:27.167Z,91.88
2023-05-22T02:20:59.888Z,91.50
2023-05-22T02:23:29.850Z,91.74
2023-05-22T02:25:58.016Z,91.53
2023-05-22T02:28:27.570Z,91.61
2023-05-22T02:30:55.558Z,91.70
2023-05-22T02:33:23.879Z,91.88
2023-05-22T02:35:51.844Z,91.86
2023-05-22T02:38:20.382Z,91.92
2023-05-22T02:40:49.792Z,92.23
2023-05-22T02:43:17.745Z,92.47
2023-05-22T02:45:45.874Z,92.77
2023-05-22T02:48:13.851Z,92.96
2023-05-22T02:50:44.288Z,93.93
2023-05-22T02:53:14.520Z,95.09
2023-05-22T02:55:43.575Z,94.45
2023-05-22T02:58:12.000Z,94.57
2023-05-22T03:00:40.982Z,94.57
2023-05-22T03:03:09.386Z,94.79
2023-05-22T03:05:38.609Z,94.81
2023-05-22T03:08:08.785Z,94.76
2023-05-22T03:10:37.004Z,94.77
2023-05-22T03:13:05.287Z,94.53
2023-05-22T03:15:33.315Z,94.97
2023-05-22T03:18:08.125Z,94.85
2023-05-22T03:20:36.234Z,94.75
2023-05-22T03:23:05.215Z,94.95
2023-05-22T03:25:33.197Z,95.82
2023-05-22T03:28:01.140Z,95.55
2023-05-22T03:30:30.916Z,96.13
2023-05-22T03:33:09.657Z,95.60
2023-05-22T03:35:37.709Z,95.99
2023-05-22T03:38:06.052Z,95.55
2023-05-22T03:40:34.105Z,95.14
2023-05-22T03:43:02.154Z,94.84
2023-05-22T03:45:30.306Z,94.57
2023-05-22T03:47:59.172Z,94.36
2023-05-22T03:50:27.262Z,93.80
2023-05-22T03:52:55.220Z,93.47
2023-05-22T03:55:23.492Z,93.18
2023-05-22T03:57:53.452Z,92.97
2023-05-22T04:00:21.645Z,92.82
2023-05-22T04:02:50.531Z,92.59
2023-05-22T04:05:18.710Z,92.69
2023-05-22T04:07:48.243Z,92.17
2023-05-22T04:10:16.279Z,91.83
2023-05-22T04:12:45.722Z,91.53
2023-05-22T04:15:14.832Z,91.89
2023-05-22T04:17:42.825Z,91.89
2023-05-22T04:20:11.502Z,91.41
2023-05-22T04:22:41.365Z,91.24
2023-05-22T04:25:12.207Z,91.12
2023-05-22T04:27:40.290Z,91.01
2023-05-22T04:30:10.537Z,90.33
2023-05-22T04:32:41.023Z,90.00
2023-05-22T04:35:10.187Z,89.90
2023-05-22T04:37:41.096Z,89.62
2023-05-22T04:40:10.225Z,87.89
2023-05-22T04:42:39.012Z,86.77
2023-05-22T04:45:07.344Z,87.37
2023-05-22T04:47:38.344Z,86.64
2023-05-22T04:50:08.717Z,85.43
2023-05-22T04:52:37.519Z,85.50
2023-05-22T04:55:07.144Z,85.45
2023-05-22T04:57:35.102Z,86.07
2023-05-22T05:00:06.636Z,85.45
2023-05-22T05:02:37.348Z,85.49
2023-05-22T05:05:05.556Z,85.95
2023-05-22T05:07:37.601Z,86.09
2023-05-22T05:10:07.361Z,86.20
2023-05-22T05:12:35.793Z,85.99
2023-05-22T05:15:04.174Z,85.18
2023-05-22T05:17:32.108Z,83.91
2023-05-22T05:20:00.444Z,83.35
2023-05-22T05:22:29.321Z,81.77
2023-05-22T05:24:58.365Z,81.59
2023-05-22T05:27:26.607Z,81.86
2023-05-22T05:29:55.332Z,80.99
2023-05-22T05:32:27.922Z,80.80
2023-05-22T05:35:14.598Z,80.93
2023-05-22T05:37:48.092Z,81.08
2023-05-22T05:40:16.360Z,81.39
2023-05-22T05:42:48.767Z,80.85
2023-05-22T05:45:19.053Z,79.40
2023-05-22T05:47:47.114Z,78.77
2023-05-22T05:50:15.996Z,78.77
2023-05-22T05:52:45.096Z,78.82
2023-05-22T05:55:16.835Z,79.02
2023-05-22T05:57:44.919Z,79.47
2023-05-22T06:00:19.308Z,79.38
2023-05-22T06:02:50.639Z,78.83
2023-05-22T06:05:46.111Z,78.72
2023-05-22T06:08:28.278Z,79.05
2023-05-22T06:10:56.554Z,78.97
2023-05-22T06:13:36.816Z,78.97
2023-05-22T06:16:06.768Z,78.67
2023-05-22T06:18:35.689Z,78.73
2023-05-22T06:21:03.870Z,78.51
2023-05-22T06:23:32.398Z,78.27
2023-05-22T06:26:01.125Z,78.32
2023-05-22T06:28:29.390Z,77.74
2023-05-22T06:30:58.129Z,77.55
2023-05-22T06:33:27.141Z,78.02
2023-05-22T06:35:55.525Z,78.33
2023-05-22T06:38:24.310Z,78.16
2023-05-22T06:40:52.326Z,78.10
2023-05-22T06:43:25.677Z,77.59
2023-05-22T06:46:16.935Z,77.06
2023-05-22T06:48:55.230Z,76.37
2023-05-22T06:51:25.884Z,75.45
2023-05-22T06:53:58.938Z,75.57
2023-05-22T06:56:29.884Z,75.12
2023-05-22T06:59:06.119Z,75.07
2023-05-22T07:02:04.943Z,68.56
2023-05-22T07:04:38.921Z,63.59
2023-05-22T07:07:10.237Z,63.15
2023-05-22T07:09:38.565Z,62.59
2023-05-22T07:12:07.550Z,61.99
2023-05-22T07:14:35.744Z,61.83
2023-05-22T07:17:04.098Z,62.94
2023-05-22T07:19:36.603Z,62.96
2023-05-22T07:22:05.686Z,63.12
2023-05-22T07:24:35.057Z,63.74
2023-05-22T07:27:04.563Z,62.52
2023-05-22T07:29:33.378Z,62.11
2023-05-22T07:32:01.879Z,62.49
2023-05-22T07:34:34.427Z,62.69
2023-05-22T07:37:09.221Z,63.64
2023-05-22T07:39:37.274Z,64.12
2023-05-22T07:42:06.056Z,62.87
2023-05-22T07:44:36.019Z,62.53
2023-05-22T07:47:04.370Z,61.71
2023-05-22T07:49:32.700Z,61.95
2023-05-22T07:52:02.706Z,61.90
2023-05-22T07:54:30.614Z,61.26
2023-05-22T07:57:03.284Z,60.03
2023-05-22T07:59:33.783Z,59.76
2023-05-22T08:02:02.775Z,59.44
2023-05-22T08:04:30.851Z,58.20
2023-05-22T08:06:59.385Z,57.88
2023-05-22T08:09:27.428Z,57.83
2023-05-22T08:11:55.423Z,57.57
2023-05-22T08:14:23.460Z,57.51
2023-05-22T08:16:52.017Z,57.00
2023-05-22T08:19:20.397Z,57.52
2023-05-22T08:21:48.590Z,57.38
2023-05-22T08:24:16.551Z,56.13
2023-05-22T08:26:44.869Z,55.71
2023-05-22T08:29:12.906Z,56.28
2023-05-22T08:31:41.266Z,55.92
2023-05-22T08:34:10.738Z,55.40
2023-05-22T08:36:39.136Z,56.44
2023-05-22T08:39:09.917Z,56.87
2023-05-22T08:41:38.384Z,57.48
2023-05-22T08:44:06.349Z,56.72
2023-05-22T08:46:38.077Z,55.85
2023-05-22T08:49:06.156Z,55.85
2023-05-22T08:51:38.543Z,56.04
2023-05-22T08:54:12.757Z,55.31
2023-05-22T08:56:52.806Z,54.93
2023-05-22T08:59:24.370Z,54.40
2023-05-22T09:01:53.494Z,54.47
2023-05-22T09:04:23.914Z,54.57
2023-05-22T09:06:51.912Z,53.81
2023-05-22T09:09:19.940Z,52.67
2023-05-22T09:11:48.242Z,52.55
2023-05-22T09:14:16.525Z,52.64
2023-05-22T09:16:49.380Z,53.07
2023-05-22T09:19:17.820Z,53.24
2023-05-22T09:21:45.818Z,53.39
2023-05-22T09:24:13.824Z,54.18
2023-05-22T09:26:42.098Z,53.78
2023-05-22T09:29:10.079Z,53.94
2023-05-22T09:31:44.779Z,54.35
2023-05-22T09:34:17.821Z,54.40
2023-05-22T09:36:45.832Z,53.99
2023-05-22T09:39:13.833Z,53.72
2023-05-22T09:41:41.603Z,53.00
2023-05-22T09:44:14.094Z,53.62
2023-05-22T09:46:46.488Z,53.68
2023-05-22T09:49:16.471Z,53.70
2023-05-22T09:51:47.357Z,53.02
2023-05-22T09:54:16.975Z,52.81
2023-05-22T09:56:50.162Z,52.38
2023-05-22T09:59:26.818Z,52.85
2023-05-22T10:01:55.407Z,52.91
2023-05-22T10:04:24.201Z,52.83
2023-05-22T10:06:54.548Z,52.49
2023-05-22T10:09:26.345Z,51.55
2023-05-22T10:11:58.712Z,51.08
2023-05-22T10:14:28.237Z,51.67
2023-05-22T10:17:02.113Z,52.34
2023-05-22T10:19:32.821Z,52.75
2023-05-22T10:22:02.131Z,52.81
2023-05-22T10:24:31.285Z,52.60
2023-05-22T10:26:59.392Z,52.23
2023-05-22T10:29:44.992Z,52.32
2023-05-22T10:32:35.802Z,52.78
2023-05-22T10:35:25.351Z,52.47
2023-05-22T10:38:22.861Z,52.73
2023-05-22T10:40:51.676Z,52.54
2023-05-22T10:43:22.280Z,53.00
2023-05-22T10:46:01.313Z,52.43
2023-05-22T10:48:30.500Z,52.10
2023-05-22T10:50:59.988Z,51.50
2023-05-22T10:53:31.310Z,50.59
2023-05-22T10:56:03.089Z,50.47
2023-05-22T10:58:32.761Z,51.87
2023-05-22T11:01:17.054Z,52.19
2023-05-22T11:03:59.012Z,52.20
2023-05-22T11:06:34.858Z,50.18
2023-05-22T11:09:30.669Z,49.51
2023-05-22T11:12:31.254Z,49.74
2023-05-22T11:15:08.242Z,48.07
2023-05-22T11:17:39.190Z,47.08
2023-05-22T11:20:15.602Z,46.99
2023-05-22T11:22:50.149Z,47.46
2023-05-22T11:25:19.678Z,47.52
2023-05-22T11:27:48.905Z,48.30
2023-05-22T11:30:17.420Z,47.69
2023-05-22T11:32:46.537Z,46.08
2023-05-22T11:35:17.419Z,47.03
2023-05-22T11:37:46.187Z,47.75
2023-05-22T11:40:16.321Z,47.22
2023-05-22T11:42:44.433Z,47.54
2023-05-22T11:45:12.543Z,47.63
2023-05-22T11:47:40.952Z,46.18
2023-05-22T11:50:10.296Z,45.85
2023-05-22T11:52:40.541Z,45.11
2023-05-22T11:55:09.113Z,44.59
2023-05-22T11:57:37.412Z,43.61
2023-05-22T12:00:08.560Z,44.32
2023-05-22T12:02:47.624Z,45.21
2023-05-22T12:05:16.869Z,45.54
2023-05-22T12:07:45.066Z,45.34
2023-05-22T12:10:15.409Z,46.84
2023-05-22T12:12:44.027Z,48.67
2023-05-22T12:15:12.195Z,49.75
2023-05-22T12:17:40.231Z,50.17
2023-05-22T12:20:13.650Z,50.67
2023-05-22T12:22:43.383Z,50.91
2023-05-22T12:25:20.073Z,51.01
2023-05-22T12:27:48.020Z,51.60
2023-05-22T12:30:16.854Z,51.43
2023-05-22T12:32:51.723Z,51.88
2023-05-22T12:35:19.870Z,52.28
2023-05-22T12:37:52.018Z,52.52
2023-05-22T12:40:20.232Z,52.69
2023-05-22T12:42:48.902Z,52.84
2023-05-22T12:45:18.173Z,52.87
2023-05-22T12:47:46.549Z,53.03
2023-05-22T12:50:14.650Z,52.84
2023-05-22T12:52:42.692Z,53.01
2023-05-22T12:55:11.360Z,52.96
2023-05-22T12:57:39.338Z,52.85
2023-05-22T13:00:07.865Z,52.39
2023-05-22T13:02:35.878Z,51.62
2023-05-22T13:05:04.164Z,51.73
2023-05-22T13:07:32.160Z,52.03
2023-05-22T13:10:00.235Z,52.26
2023-05-22T13:12:28.204Z,52.51
2023-05-22T13:14:56.073Z,52.98
2023-05-22T13:17:24.154Z,53.16
2023-05-22T13:19:52.803Z,52.04
2023-05-22T13:22:20.799Z,51.40
2023-05-22T13:24:48.787Z,50.52
2023-05-22T13:27:18.435Z,50.72
2023-05-22T13:29:46.356Z,51.13
2023-05-22T13:32:14.758Z,51.88
2023-05-22T13:34:42.707Z,53.42
2023-05-22T13:37:10.997Z,52.54
2023-05-22T13:39:38.986Z,52.69
2023-05-22T13:42:07.617Z,52.51
2023-05-22T13:44:35.488Z,51.20
2023-05-22T13:47:03.629Z,50.26
2023-05-22T13:49:31.763Z,49.38
2023-05-22T13:51:59.760Z,49.33
2023-05-22T13:54:28.085Z,51.21
2023-05-22T13:56:57.779Z,54.85
2023-05-22T13:59:25.709Z,59.59
2023-05-22T14:01:53.645Z,65.72
2023-05-22T14:04:21.628Z,70.20
2023-05-22T14:06:49.685Z,68.23
2023-05-22T14:09:18.446Z,67.69
2023-05-22T14:11:46.816Z,67.42
2023-05-22T14:14:14.853Z,67.13
2023-05-22T14:16:42.871Z,66.53
2023-05-22T14:19:10.996Z,66.79
2023-05-22T14:21:39.023Z,65.82
2023-05-22T14:24:07.032Z,65.45
2023-05-22T14:26:34.930Z,66.45
2023-05-22T14:29:02.962Z,65.02
2023-05-22T14:31:30.935Z,63.99
2023-05-22T14:33:58.975Z,64.02
2023-05-22T14:36:26.829Z,64.09
2023-05-22T14:38:57.043Z,63.97
2023-05-22T14:41:25.078Z,64.11
2023-05-22T14:43:53.084Z,65.22
2023-05-22T14:46:20.924Z,64.87
2023-05-22T14:48:48.826Z,64.75
2023-05-22T14:51:20.308Z,64.71
2023-05-22T14:53:48.534Z,64.03
2023-05-22T14:56:16.478Z,62.70
2023-05-22T14:58:44.469Z,62.62
2023-05-22T15:01:12.259Z,62.16
2023-05-22T15:03:40.141Z,61.47
2023-05-22T15:06:08.707Z,61.11
2023-05-22T15:08:37.514Z,59.31
2023-05-22T15:11:05.642Z,58.60
2023-05-22T15:13:33.546Z,58.92
2023-05-22T15:16:01.525Z,58.41
2023-05-22T15:18:29.549Z,57.47
2023-05-22T15:20:57.890Z,55.52
2023-05-22T15:23:26.595Z,54.63
2023-05-22T15:25:55.042Z,54.26
2023-05-22T15:28:23.371Z,53.64
2023-05-22T15:30:51.154Z,52.09
2023-05-22T15:33:19.063Z,51.22
2023-05-22T15:35:47.404Z,50.43
2023-05-22T15:38:15.707Z,49.52
2023-05-22T15:40:44.697Z,49.46
2023-05-22T15:43:12.550Z,50.18
2023-05-22T15:45:41.252Z,50.42
2023-05-22T15:48:09.291Z,50.74
2023-05-22T15:50:37.367Z,51.22
2023-05-22T15:53:05.356Z,51.68
2023-05-22T15:55:36.706Z,52.19
2023-05-22T15:58:06.567Z,52.77
2023-05-22T16:00:41.324Z,52.64
2023-05-22T16:03:15.105Z,53.07
2023-05-22T16:05:45.767Z,53.07
2023-05-22T16:08:17.072Z,52.95
2023-05-22T16:10:47.221Z,53.16
2023-05-22T16:13:17.062Z,54.02
2023-05-22T16:15:45.206Z,54.38
2023-05-22T16:18:13.496Z,54.43
2023-05-22T16:20:41.708Z,54.55
2023-05-22T16:23:12.312Z,55.00
2023-05-22T16:25:40.781Z,55.65
2023-05-22T16:28:11.013Z,55.67
2023-05-22T16:30:40.260Z,56.16
2023-05-22T16:33:08.930Z,56.83
2023-05-22T16:35:37.801Z,56.96
2023-05-22T16:38:07.263Z,57.08
2023-05-22T16:40:35.275Z,58.36
2023-05-22T16:43:04.602Z,57.98
2023-05-22T16:45:32.635Z,58.22
2023-05-22T16:48:01.277Z,57.80
2023-05-22T16:50:29.261Z,58.37
2023-05-22T16:52:57.364Z,58.72
2023-05-22T16:55:25.720Z,59.12
2023-05-22T16:57:54.052Z,58.77
2023-05-22T17:00:22.388Z,58.81
2023-05-22T17:02:51.080Z,59.20
2023-05-22T17:05:20.054Z,59.08
2023-05-22T17:07:48.516Z,58.64
2023-05-22T17:10:16.518Z,59.28
2023-05-22T17:12:44.564Z,59.37
2023-05-22T17:15:12.483Z,59.71
2023-05-22T17:17:40.753Z,60.02
2023-05-22T17:20:10.136Z,59.72
2023-05-22T17:22:38.810Z,60.52
2023-05-22T17:25:08.128Z,60.81
2023-05-22T17:27:36.988Z,61.00
2023-05-22T17:30:07.858Z,61.47
2023-05-22T17:32:35.968Z,62.32
2023-05-22T17:35:06.739Z,62.59
2023-05-22T17:37:34.930Z,63.46
2023-05-22T17:40:03.901Z,63.16
2023-05-22T17:42:31.816Z,64.08
2023-05-22T17:44:59.672Z,63.48
2023-05-22T17:47:27.599Z,63.53
2023-05-22T17:49:55.944Z,63.92
2023-05-22T17:52:23.759Z,63.97
2023-05-22T17:54:51.819Z,64.35
2023-05-22T17:57:19.698Z,64.28
2023-05-22T17:59:47.802Z,64.24
2023-05-22T18:02:16.015Z,64.78
2023-05-22T18:04:44.401Z,65.39
2023-05-22T18:07:12.371Z,65.62
2023-05-22T18:09:40.695Z,65.57
2023-05-22T18:12:15.139Z,65.50
2023-05-22T18:14:52.436Z,66.88
2023-05-22T18:17:20.584Z,67.73
2023-05-22T18:19:48.610Z,67.65
2023-05-22T18:22:16.580Z,68.42
2023-05-22T18:24:44.618Z,67.79
2023-05-22T18:27:12.578Z,68.19
2023-05-22T18:29:40.760Z,70.10
2023-05-22T18:32:10.923Z,69.41
2023-05-22T18:34:38.916Z,70.06
2023-05-22T18:37:08.809Z,71.28
2023-05-22T18:39:37.457Z,71.27
2023-05-22T18:42:05.888Z,70.81
2023-05-22T18:44:33.892Z,71.70
2023-05-22T18:47:02.026Z,71.63
2023-05-22T18:49:30.059Z,72.18
2023-05-22T18:52:03.350Z,72.76
2023-05-22T18:54:31.294Z,73.72
2023-05-22T18:56:59.243Z,73.44
2023-05-22T18:59:27.065Z,73.63
2023-05-22T19:01:55.182Z,73.09
2023-05-22T19:04:23.305Z,73.20
2023-05-22T19:06:53.699Z,73.55
2023-05-22T19:09:22.337Z,74.48
2023-05-22T19:11:50.383Z,76.31
2023-05-22T19:14:18.305Z,76.82
2023-05-22T19:16:46.327Z,76.34
2023-05-22T19:19:14.916Z,76.10
2023-05-22T19:21:43.052Z,76.61
2023-05-22T19:24:11.000Z,76.61
2023-05-22T19:26:38.964Z,77.45
2023-05-22T19:29:06.870Z,77.70
2023-05-22T19:31:35.016Z,77.63
2023-05-22T19:34:04.092Z,77.32
2023-05-22T19:36:32.693Z,76.63
2023-05-22T19:39:00.753Z,75.90
2023-05-22T19:41:31.935Z,75.21
2023-05-22T19:44:02.376Z,76.01
2023-05-22T19:46:30.352Z,75.69
2023-05-22T19:48:58.393Z,75.09
2023-05-22T19:51:26.705Z,75.25
2023-05-22T19:53:54.551Z,76.17
2023-05-22T19:56:22.689Z,76.76
2023-05-22T19:58:53.301Z,77.33
2023-05-22T20:01:21.146Z,77.08
2023-05-22T20:03:49.721Z,77.01
2023-05-22T20:06:18.556Z,78.86
2023-05-22T20:08:46.406Z,80.27
2023-05-22T20:11:14.600Z,81.32
2023-05-22T20:13:42.665Z,81.94
2023-05-22T20:16:12.841Z,80.96
2023-05-22T20:18:44.668Z,80.86
2023-05-22T20:21:13.188Z,81.64
2023-05-22T20:23:42.501Z,80.99
2023-05-22T20:26:10.500Z,80.63
2023-05-22T20:28:39.163Z,80.30
2023-05-22T20:31:07.159Z,80.09
2023-05-22T20:33:39.846Z,80.00
2023-05-22T20:36:08.685Z,79.97
2023-05-22T20:38:36.909Z,80.44
2023-05-22T20:41:09.543Z,81.24
2023-05-22T20:43:37.808Z,81.76
2023-05-22T20:46:05.753Z,81.54
2023-05-22T20:48:33.744Z,81.93
2023-05-22T20:51:01.732Z,82.32
2023-05-22T20:53:29.609Z,82.43
2023-05-22T20:56:00.321Z,82.76
2023-05-22T20:58:28.350Z,82.67
2023-05-22T21:00:56.731Z,82.45
2023-05-22T21:03:25.767Z,82.35
2023-05-22T21:05:54.815Z,82.20
2023-05-22T21:08:22.727Z,81.98
2023-05-22T21:10:50.668Z,82.83
2023-05-22T21:13:19.578Z,82.52
2023-05-22T21:15:47.494Z,83.09
2023-05-22T21:18:15.944Z,83.61
2023-05-22T21:20:43.958Z,83.95
2023-05-22T21:23:12.031Z,84.19
2023-05-22T21:25:39.985Z,84.20
2023-05-22T21:28:07.866Z,85.19
2023-05-22T21:30:36.136Z,85.17
2023-05-22T21:33:04.098Z,86.89
2023-05-22T21:35:32.019Z,86.10
2023-05-22T21:37:59.795Z,86.19
2023-05-22T21:40:27.589Z,86.72
2023-05-22T21:42:55.352Z,87.16
2023-05-22T21:45:23.181Z,88.23
2023-05-22T21:47:51.134Z,88.94
2023-05-22T21:50:19.141Z,89.09
2023-05-22T21:52:47.165Z,89.20
2023-05-22T21:55:15.140Z,89.76
2023-05-22T21:57:43.204Z,89.79
2023-05-22T22:00:12.533Z,90.34
2023-05-22T22:02:41.868Z,91.70
2023-05-22T22:05:11.769Z,91.59
2023-05-22T22:07:39.602Z,91.73
2023-05-22T22:10:07.965Z,91.39
2023-05-22T22:12:35.865Z,91.81
2023-05-22T22:15:04.101Z,92.12
2023-05-22T22:17:31.944Z,92.21
2023-05-22T22:20:00.158Z,92.44
2023-05-22T22:22:28.463Z,93.12
2023-05-22T22:24:56.320Z,93.40
2023-05-22T22:27:24.342Z,93.06
2023-05-22T22:29:52.208Z,92.83
2023-05-22T22:32:20.564Z,93.58
2023-05-22T22:34:53.752Z,93.66
2023-05-22T22:37:22.034Z,93.05
2023-05-22T22:39:50.096Z,92.76
2023-05-22T22:42:17.988Z,92.89
2023-05-22T22:44:45.977Z,92.91
2023-05-22T22:47:13.768Z,92.97
2023-05-22T22:49:42.453Z,92.89
2023-05-22T22:52:10.210Z,92.64
2023-05-22T22:54:38.197Z,93.70
2023-05-22T22:57:06.431Z,93.91
2023-05-22T22:59:35.589Z,94.06
2023-05-22T23:02:03.414Z,94.11
2023-05-22T23:04:32.470Z,94.09
2023-05-22T23:07:00.417Z,93.97
2023-05-22T23:09:28.219Z,93.92
2023-05-22T23:11:56.161Z,94.20
2023-05-22T23:14:24.798Z,94.34
2023-05-22T23:16:52.694Z,94.52
2023-05-22T23:19:20.570Z,94.44
2023-05-22T23:21:48.550Z,94.42
2023-05-22T23:24:16.532Z,94.48
2023-05-22T23:26:44.526Z,94.62
2023-05-22T23:29:12.512Z,94.65
2023-05-22T23:31:40.626Z,94.87
2023-05-22T23:34:08.814Z,94.83
2023-05-22T23:36:36.952Z,94.76
2023-05-22T23:39:04.961Z,94.99
2023-05-22T23:41:33.443Z,94.83
2023-05-22T23:44:02.098Z,95.29
2023-05-22T23:46:30.107Z,95.60
2023-05-22T23:48:58.023Z,95.75
2023-05-22T23:51:25.980Z,95.72
2023-05-22T23:53:53.931Z,95.60
2023-05-22T23:56:21.916Z,95.42
2023-05-22T23:58:49.749Z,95.36
